Port En Bessin, France

10:08 AM CEST on September 03, 2015 (GMT +0200)
Mon Jardin | | Change Station
CLOSE
Current Station
Personal Weather Station
Location: Saint-Contest, BASSE-NORMANDIE
Elevation: 203 ft
Nearby Weather Stations

Elev 203 ft 49.21 °N, 0.42 °W | Updated 3 minutes ago

Partly Cloudy
Partly Cloudy
58.8 °F
Feels Like 58.8 °F
N
2.5
Wind Variable Wind from North
Gusts 6.5 mph

Today
High -- | Low -- °F
--% Chance of Precip.
Yesterday
High -- | Low -- °F
Precip. -- in
7:21 AM 8:42 PM
Waning Gibbous, 72% visible
Pressure 30.04 in
Visibility 6.2 miles
Clouds Few 2500 ft
Dew Point 58 °F
Humidity 98%
Rainfall Not available.
Snow Depth Not available.
UV 2 out of 12
Pollen Not available.
Air Quality Not available.
Flu Activity Not available.
METAR LFRK 030800Z AUTO 27008KT 240V300 9999 FEW025/// ///TCU 15/12 Q1017
Pressure 30.04 in
Visibility 6.2 miles
Clouds Few 2500 ft
Dew Point 58 °F
Humidity 98%
Rainfall Not available.
Snow Depth Not available.
UV 2 out of 12
Pollen Not available.
Air Quality Not available.
Flu Activity Not available.
METAR LFRK 030800Z AUTO 27008KT 240V300 9999 FEW025/// ///TCU 15/12 Q1017

10-Day Weather Forecast

×

Almanac

Astronomy

Sep. 03, 2015 Rise Set
Actual Time
Civil Twilight
Nautical Twilight
Astronomical Twilight
Moon
Length of Visible Light
Length of Day
Tomorrow will be .
, % of the Moon is Illuminated

Today's Extremes

Country Highs Country Lows

Community

WunderPhotos

Upload Photos

1,851,919 photos uploaded!

WunderBlogs® & News

Nearby

Air Quality

  Air Quality AQ Index Pollutant
Not available.

Snow Depth

Station Depth Elevation

Earthquake Activity

City Distance Mag. Time & Date
Minimum magnitude displayed is 2.5.

Coastal Water Temperatures

Place Temperature

Stations

Nearby Weather Stations

Station Location Temp. Windchill Dew Point Humidity Wind Precip. Elev Updated Type